createdAt,value
2018-12-01T00:00:45.111Z,3.20
2018-12-01T00:03:12.911Z,3.43
2018-12-01T00:05:40.554Z,3.97
2018-12-01T00:08:08.153Z,3.20
2018-12-01T00:10:35.875Z,3.23
2018-12-01T00:13:04.162Z,2.93
2018-12-01T00:15:31.919Z,3.10
2018-12-01T00:17:59.586Z,3.33
2018-12-01T00:20:33.183Z,2.70
2018-12-01T00:23:00.924Z,3.73
2018-12-01T00:25:28.479Z,2.73
2018-12-01T00:27:56.213Z,3.30
2018-12-01T00:30:24.510Z,2.67
2018-12-01T00:32:53.222Z,3.20
2018-12-01T00:35:20.988Z,2.77
2018-12-01T00:37:48.756Z,3.10
2018-12-01T00:40:18.324Z,2.90
2018-12-01T00:42:46.082Z,3.27
2018-12-01T00:45:15.660Z,2.47
2018-12-01T00:47:44.434Z,3.00
2018-12-01T00:50:15.173Z,2.90
2018-12-01T00:52:42.906Z,3.17
2018-12-01T00:55:12.764Z,3.10
2018-12-01T00:57:40.473Z,3.20
2018-12-01T01:00:13.690Z,3.60
2018-12-01T01:02:41.478Z,3.33
2018-12-01T01:05:09.387Z,3.27
2018-12-01T01:07:37.044Z,4.03
2018-12-01T01:10:08.327Z,2.90
2018-12-01T01:12:36.114Z,3.60
2018-12-01T01:15:04.764Z,3.17
2018-12-01T01:17:32.390Z,3.57
2018-12-01T01:20:00.034Z,3.67
2018-12-01T01:22:27.814Z,2.70
2018-12-01T01:24:55.404Z,4.00
2018-12-01T01:27:23.027Z,3.20
2018-12-01T01:29:50.642Z,3.03
2018-12-01T01:32:18.503Z,3.30
2018-12-01T01:34:46.204Z,2.40
2018-12-01T01:37:14.389Z,3.20
2018-12-01T01:39:42.024Z,2.73
2018-12-01T01:42:10.069Z,3.40
2018-12-01T01:44:37.763Z,2.70
2018-12-01T01:47:05.585Z,3.17
2018-12-01T01:49:33.477Z,3.20
2018-12-01T01:52:01.298Z,3.53
2018-12-01T01:54:29.029Z,2.50
2018-12-01T01:56:56.630Z,2.90
2018-12-01T01:59:24.238Z,3.30
2018-12-01T02:01:51.936Z,2.33
2018-12-01T02:04:19.708Z,3.33
2018-12-01T02:06:47.324Z,3.33
2018-12-01T02:09:15.720Z,2.60
2018-12-01T02:11:43.373Z,2.60
2018-12-01T02:14:11.147Z,2.77
2018-12-01T02:16:39.818Z,3.03
2018-12-01T02:19:07.491Z,3.07
2018-12-01T02:21:35.127Z,3.93
2018-12-01T02:24:02.840Z,3.40
2018-12-01T02:26:30.548Z,3.37
2018-12-01T02:28:58.243Z,2.80
2018-12-01T02:31:25.950Z,2.40
2018-12-01T02:33:53.635Z,2.60
2018-12-01T02:36:21.463Z,2.67
2018-12-01T02:38:49.179Z,2.87
2018-12-01T02:41:16.919Z,2.47
2018-12-01T02:43:52.757Z,2.20
2018-12-01T02:46:32.228Z,2.70
2018-12-01T02:48:59.841Z,2.50
2018-12-01T02:51:27.480Z,3.17
2018-12-01T02:53:55.246Z,2.97
2018-12-01T02:56:22.993Z,2.70
2018-12-01T02:58:50.858Z,2.73
2018-12-01T03:01:18.615Z,2.80
2018-12-01T03:03:46.381Z,2.80
2018-12-01T03:06:14.163Z,2.90
2018-12-01T03:08:41.878Z,2.90
2018-12-01T03:11:09.588Z,2.23
2018-12-01T03:13:37.268Z,3.00
2018-12-01T03:16:05.977Z,2.60
2018-12-01T03:18:33.834Z,3.13
2018-12-01T03:21:16.405Z,2.70
2018-12-01T03:23:44.249Z,2.90
2018-12-01T03:26:11.907Z,2.77
2018-12-01T03:28:39.613Z,2.20
2018-12-01T03:31:07.414Z,2.23
2018-12-01T03:33:35.168Z,2.23
2018-12-01T03:36:02.778Z,2.67
2018-12-01T03:38:30.442Z,3.27
2018-12-01T03:40:58.193Z,3.10
2018-12-01T03:43:25.912Z,2.70
2018-12-01T03:45:53.614Z,2.73
2018-12-01T03:48:21.357Z,2.40
2018-12-01T03:50:49.007Z,2.67
2018-12-01T03:53:16.630Z,2.40
2018-12-01T03:55:44.434Z,2.13
2018-12-01T03:58:12.413Z,3.33
2018-12-01T04:00:40.006Z,3.40
2018-12-01T04:03:07.862Z,3.00
2018-12-01T04:05:35.488Z,2.77
2018-12-01T04:08:03.348Z,2.40
2018-12-01T04:10:31.871Z,2.93
2018-12-01T04:12:59.546Z,2.73
2018-12-01T04:15:27.178Z,3.27
2018-12-01T04:17:54.983Z,2.10
2018-12-01T04:20:23.060Z,2.53
2018-12-01T04:22:50.745Z,3.37
2018-12-01T04:25:18.548Z,3.10
2018-12-01T04:27:46.245Z,2.53
2018-12-01T04:30:19.090Z,2.57
2018-12-01T04:32:46.951Z,2.40
2018-12-01T04:35:16.038Z,3.10
2018-12-01T04:37:44.953Z,2.43
2018-12-01T04:40:12.704Z,2.27
2018-12-01T04:42:40.690Z,2.40
2018-12-01T04:45:08.490Z,2.53
2018-12-01T04:47:36.368Z,2.10
2018-12-01T04:50:04.168Z,2.60
2018-12-01T04:52:32.024Z,2.57
2018-12-01T04:54:59.660Z,3.07
2018-12-01T04:57:27.300Z,2.70
2018-12-01T04:59:55.320Z,2.27
2018-12-01T05:02:22.996Z,2.57
2018-12-01T05:04:50.899Z,2.23
2018-12-01T05:07:18.571Z,2.30
2018-12-01T05:09:46.839Z,3.13
2018-12-01T05:12:14.500Z,3.17
2018-12-01T05:14:42.323Z,2.30
2018-12-01T05:17:09.989Z,2.37
2018-12-01T05:19:37.589Z,2.90
2018-12-01T05:22:05.564Z,3.27
2018-12-01T05:24:33.386Z,2.87
2018-12-01T05:27:01.004Z,2.40
2018-12-01T05:29:28.647Z,3.90
2018-12-01T05:31:56.394Z,2.40
2018-12-01T05:34:24.193Z,2.40
2018-12-01T05:36:51.976Z,3.07
2018-12-01T05:39:19.820Z,2.27
2018-12-01T05:41:47.970Z,2.10
2018-12-01T05:44:15.937Z,8.83
2018-12-01T05:46:43.751Z,16.90
2018-12-01T05:49:11.511Z,22.37
2018-12-01T05:51:39.441Z,11.80
2018-12-01T05:54:08.268Z,6.73
2018-12-01T05:56:36.042Z,4.20
2018-12-01T05:59:03.782Z,4.30
2018-12-01T06:01:31.606Z,2.83
2018-12-01T06:03:59.397Z,2.50
2018-12-01T06:06:27.071Z,2.47
2018-12-01T06:08:54.788Z,2.50
2018-12-01T06:11:22.769Z,2.87
2018-12-01T06:13:50.541Z,2.80
2018-12-01T06:16:18.214Z,2.47
2018-12-01T06:18:45.935Z,2.73
2018-12-01T06:21:13.676Z,2.77
2018-12-01T06:23:41.554Z,13.07
2018-12-01T06:26:09.407Z,42.60
2018-12-01T06:28:37.321Z,17.90
2018-12-01T06:31:04.963Z,8.77
2018-12-01T06:33:32.641Z,5.97
2018-12-01T06:36:00.367Z,4.67
2018-12-01T06:38:28.136Z,3.60
2018-12-01T06:40:56.194Z,2.57
2018-12-01T06:43:23.989Z,2.87
2018-12-01T06:45:51.907Z,3.17
2018-12-01T06:48:19.653Z,3.17
2018-12-01T06:50:47.611Z,3.43
2018-12-01T06:53:15.315Z,3.27
2018-12-01T06:55:43.111Z,3.73
2018-12-01T06:58:10.948Z,3.93
2018-12-01T07:00:38.854Z,8.67
2018-12-01T07:03:06.711Z,8.80
2018-12-01T07:05:34.558Z,9.50
2018-12-01T07:08:02.273Z,6.03
2018-12-01T07:10:29.914Z,4.57
2018-12-01T07:13:00.244Z,4.27
2018-12-01T07:15:31.727Z,3.70
2018-12-01T07:17:59.717Z,3.50
2018-12-01T07:20:27.328Z,3.80
2018-12-01T07:22:55.122Z,3.23
2018-12-01T07:25:23.744Z,4.23
2018-12-01T07:27:52.058Z,3.90
2018-12-01T07:30:20.326Z,3.40
2018-12-01T07:32:48.600Z,31.10
2018-12-01T07:35:17.103Z,16.70
2018-12-01T07:37:45.244Z,9.50
2018-12-01T07:40:14.783Z,6.43
2018-12-01T07:42:42.898Z,5.80
2018-12-01T07:45:11.925Z,5.77
2018-12-01T07:47:39.986Z,5.20
2018-12-01T07:50:11.276Z,4.73
2018-12-01T07:52:39.542Z,5.10
2018-12-01T07:55:07.783Z,5.63
2018-12-01T07:57:36.103Z,5.50
2018-12-01T08:00:13.380Z,6.03
2018-12-01T08:02:42.588Z,4.73
2018-12-01T08:05:14.453Z,4.10
2018-12-01T08:07:42.798Z,4.70
2018-12-01T08:10:12.905Z,4.17
2018-12-01T08:12:41.740Z,5.10
2018-12-01T08:15:12.428Z,5.50
2018-12-01T08:17:40.605Z,6.67
2018-12-01T08:20:09.739Z,5.37
2018-12-01T08:22:37.597Z,5.73
2018-12-01T08:25:08.358Z,10.57
2018-12-01T08:27:36.467Z,20.47
2018-12-01T08:30:09.342Z,14.97
2018-12-01T08:32:37.090Z,8.73
2018-12-01T08:35:05.154Z,6.07
2018-12-01T08:37:33.261Z,4.80
2018-12-01T08:40:01.334Z,3.80
2018-12-01T08:42:29.598Z,4.23
2018-12-01T08:44:57.509Z,3.73
2018-12-01T08:47:25.639Z,3.70
2018-12-01T08:49:53.925Z,3.40
2018-12-01T08:52:22.311Z,2.17
2018-12-01T08:54:50.576Z,2.90
2018-12-01T08:57:18.729Z,3.53
2018-12-01T08:59:47.006Z,2.30
2018-12-01T09:02:15.435Z,3.80
2018-12-01T09:04:43.865Z,2.63
2018-12-01T09:07:11.955Z,3.13
2018-12-01T09:09:40.262Z,3.27
2018-12-01T09:12:08.426Z,3.20
2018-12-01T09:14:36.785Z,4.27
2018-12-01T09:17:05.683Z,3.00
2018-12-01T09:19:33.973Z,3.13
2018-12-01T09:22:02.511Z,3.23
2018-12-01T09:24:30.819Z,3.10
2018-12-01T09:26:59.073Z,3.67
2018-12-01T09:29:27.476Z,3.23
2018-12-01T09:31:55.846Z,3.77
2018-12-01T09:34:24.038Z,2.60
2018-12-01T09:36:52.117Z,3.20
2018-12-01T09:39:20.395Z,2.20
2018-12-01T09:41:48.632Z,4.40
2018-12-01T09:44:17.410Z,4.97
2018-12-01T09:46:45.154Z,5.10
2018-12-01T09:49:13.298Z,6.17
2018-12-01T09:51:41.717Z,7.10
2018-12-01T09:54:10.324Z,26.80
2018-12-01T09:56:38.446Z,21.73
2018-12-01T09:59:07.079Z,13.17
2018-12-01T10:01:35.491Z,9.97
2018-12-01T10:04:03.686Z,8.00
2018-12-01T10:06:31.988Z,7.63
2018-12-01T10:09:00.407Z,5.77
2018-12-01T10:11:28.835Z,4.33
2018-12-01T10:13:57.050Z,4.03
2018-12-01T10:16:25.027Z,3.00
2018-12-01T10:18:56.463Z,2.40
2018-12-01T10:21:20.547Z,3.33
2018-12-01T10:23:48.428Z,2.70
2018-12-01T10:26:16.303Z,2.63
2018-12-01T10:28:44.297Z,3.00
2018-12-01T10:31:12.438Z,2.70
2018-12-01T10:33:40.239Z,2.80
2018-12-01T10:36:08.472Z,2.77
2018-12-01T10:38:36.125Z,2.90
2018-12-01T10:41:04.471Z,3.00
2018-12-01T10:43:32.272Z,3.20
2018-12-01T10:46:00.071Z,3.57
2018-12-01T10:48:27.866Z,4.00
2018-12-01T10:50:55.797Z,3.47
2018-12-01T10:53:24.802Z,2.90
2018-12-01T10:55:52.621Z,3.30
2018-12-01T10:58:20.833Z,2.90
2018-12-01T11:00:55.442Z,3.27
2018-12-01T11:03:30.600Z,2.43
2018-12-01T11:05:59.446Z,3.30
2018-12-01T11:08:27.198Z,2.60
2018-12-01T11:10:55.464Z,2.70
2018-12-01T11:13:23.135Z,8.67
2018-12-01T11:15:50.794Z,6.10
2018-12-01T11:18:18.529Z,4.53
2018-12-01T11:20:46.246Z,4.07
2018-12-01T11:23:13.982Z,3.53
2018-12-01T11:25:41.641Z,3.00
2018-12-01T11:28:09.482Z,3.50
2018-12-01T11:30:39.321Z,2.77
2018-12-01T11:33:07.206Z,2.67
2018-12-01T11:35:35.042Z,2.60
2018-12-01T11:38:03.522Z,2.70
2018-12-01T11:40:31.185Z,2.37
2018-12-01T11:42:58.868Z,2.67
2018-12-01T11:45:26.900Z,2.57
2018-12-01T11:47:54.831Z,2.47
2018-12-01T11:50:22.556Z,2.67
2018-12-01T11:52:50.803Z,2.00
2018-12-01T11:55:19.819Z,2.23
2018-12-01T11:57:47.771Z,1.97
2018-12-01T12:00:17.232Z,2.43
2018-12-01T12:02:45.184Z,10.30
2018-12-01T12:05:14.065Z,11.50
2018-12-01T12:07:53.223Z,7.87
2018-12-01T12:10:20.917Z,4.43
2018-12-01T12:12:48.862Z,3.10
2018-12-01T12:15:16.977Z,3.00
2018-12-01T12:17:46.655Z,2.47
2018-12-01T12:20:14.706Z,2.30
2018-12-01T12:22:42.654Z,2.13
2018-12-01T12:25:10.783Z,2.07
2018-12-01T12:27:38.592Z,9.00
2018-12-01T12:30:09.638Z,9.80
2018-12-01T12:32:37.606Z,7.50
2018-12-01T12:35:05.424Z,4.93
2018-12-01T12:37:33.132Z,3.10
2018-12-01T12:40:00.920Z,2.57
2018-12-01T12:42:32.386Z,2.57
2018-12-01T12:45:00.011Z,2.00
2018-12-01T12:47:28.219Z,1.83
2018-12-01T12:49:55.855Z,2.10
2018-12-01T12:52:23.550Z,3.30
2018-12-01T12:54:51.412Z,2.73
2018-12-01T12:57:19.209Z,4.67
2018-12-01T12:59:46.848Z,4.97
2018-12-01T13:02:14.996Z,4.00
2018-12-01T13:04:42.854Z,4.13
2018-12-01T13:07:10.636Z,3.60
2018-12-01T13:09:38.319Z,3.70
2018-12-01T13:12:06.150Z,2.93
2018-12-01T13:14:33.792Z,3.03
2018-12-01T13:17:02.696Z,2.30
2018-12-01T13:19:30.437Z,2.30
2018-12-01T13:21:58.122Z,2.13
2018-12-01T13:24:25.813Z,1.90
2018-12-01T13:26:53.780Z,1.80
2018-12-01T13:29:21.527Z,1.23
2018-12-01T13:31:54.396Z,1.83
2018-12-01T13:34:17.556Z,1.40
2018-12-01T13:36:45.630Z,1.70
2018-12-01T13:39:13.770Z,1.70
2018-12-01T13:41:41.569Z,1.40
2018-12-01T13:44:09.360Z,1.60
2018-12-01T13:46:37.227Z,2.07
2018-12-01T13:49:05.167Z,1.67
2018-12-01T13:51:33.338Z,1.60
2018-12-01T13:54:01.639Z,9.50
2018-12-01T13:56:30.404Z,14.03
2018-12-01T13:58:58.210Z,7.67
2018-12-01T14:01:25.949Z,5.20
2018-12-01T14:03:53.640Z,3.13
2018-12-01T14:06:21.399Z,2.23
2018-12-01T14:08:49.084Z,2.20
2018-12-01T14:11:16.906Z,1.73
2018-12-01T14:13:44.876Z,1.60
2018-12-01T14:16:12.642Z,2.30
2018-12-01T14:18:40.496Z,1.80
2018-12-01T14:21:08.221Z,1.90
2018-12-01T14:23:36.123Z,1.30
2018-12-01T14:26:03.939Z,1.40
2018-12-01T14:28:31.608Z,1.57
2018-12-01T14:30:59.305Z,1.50
2018-12-01T14:33:27.369Z,1.80
2018-12-01T14:35:55.231Z,1.23
2018-12-01T14:38:22.858Z,1.60
2018-12-01T14:40:50.676Z,1.67
2018-12-01T14:43:18.573Z,1.80
2018-12-01T14:45:48.322Z,1.67
2018-12-01T14:48:16.160Z,2.10
2018-12-01T14:50:48.512Z,2.03
2018-12-01T14:53:13.285Z,1.50
2018-12-01T14:55:41.049Z,1.80
2018-12-01T14:58:08.823Z,1.90
2018-12-01T15:00:36.857Z,1.70
2018-12-01T15:03:05.547Z,1.37
2018-12-01T15:05:33.364Z,2.57
2018-12-01T15:08:01.120Z,2.23
2018-12-01T15:10:28.926Z,1.47
2018-12-01T15:12:56.601Z,2.97
2018-12-01T15:15:25.392Z,1.90
2018-12-01T15:17:53.230Z,2.40
2018-12-01T15:20:21.869Z,30.07
2018-12-01T15:22:50.520Z,19.47
2018-12-01T15:25:19.715Z,11.57
2018-12-01T15:27:47.500Z,6.70
2018-12-01T15:30:17.503Z,4.87
2018-12-01T15:32:46.925Z,3.53
2018-12-01T15:35:14.839Z,3.00
2018-12-01T15:37:43.584Z,2.60
2018-12-01T15:40:13.511Z,2.80
2018-12-01T15:42:41.378Z,2.70
2018-12-01T15:45:10.588Z,3.23
2018-12-01T15:47:38.514Z,2.23
2018-12-01T15:50:08.907Z,2.40
2018-12-01T15:52:37.033Z,2.17
2018-12-01T15:55:06.921Z,2.80
2018-12-01T15:57:34.721Z,1.93
2018-12-01T16:00:03.226Z,2.40
2018-12-01T16:02:30.977Z,1.73
2018-12-01T16:04:58.916Z,2.40
2018-12-01T16:07:26.735Z,2.33
2018-12-01T16:09:54.496Z,2.10
2018-12-01T16:12:22.326Z,2.47
2018-12-01T16:14:50.186Z,2.23
2018-12-01T16:17:17.901Z,2.10
2018-12-01T16:19:45.751Z,2.17
2018-12-01T16:22:13.500Z,2.03
2018-12-01T16:24:41.448Z,2.50
2018-12-01T16:27:09.113Z,1.73
2018-12-01T16:29:36.737Z,4.17
2018-12-01T16:32:04.764Z,35.40
2018-12-01T16:34:32.414Z,17.30
2018-12-01T16:37:00.311Z,8.33
2018-12-01T16:39:28.710Z,6.50
2018-12-01T16:41:56.528Z,4.47
2018-12-01T16:44:24.244Z,3.50
2018-12-01T16:46:52.040Z,3.27
2018-12-01T16:49:19.938Z,2.20
2018-12-01T16:51:47.780Z,2.03
2018-12-01T16:54:15.580Z,1.63
2018-12-01T16:56:43.490Z,2.60
2018-12-01T16:59:11.236Z,2.33
2018-12-01T17:01:39.195Z,2.60
2018-12-01T17:04:06.987Z,2.30
2018-12-01T17:06:34.713Z,2.20
2018-12-01T17:09:02.910Z,2.57
2018-12-01T17:11:30.923Z,2.10
2018-12-01T17:13:58.795Z,2.10
2018-12-01T17:16:26.547Z,2.17
2018-12-01T17:18:54.515Z,2.40
2018-12-01T17:21:22.379Z,2.50
2018-12-01T17:23:50.176Z,2.23
2018-12-01T17:26:18.037Z,2.30
2018-12-01T17:28:45.774Z,2.33
2018-12-01T17:31:13.544Z,9.30
2018-12-01T17:33:41.422Z,10.87
2018-12-01T17:36:09.193Z,6.40
2018-12-01T17:38:36.947Z,4.03
2018-12-01T17:41:09.842Z,3.77
2018-12-01T17:43:54.193Z,2.73
2018-12-01T17:46:21.832Z,2.37
2018-12-01T17:48:49.579Z,2.73
2018-12-01T17:51:17.305Z,2.60
2018-12-01T17:53:47.729Z,2.97
2018-12-01T17:56:15.684Z,2.07
2018-12-01T17:58:43.368Z,2.30
2018-12-01T18:01:11.101Z,2.30
2018-12-01T18:03:39.076Z,2.67
2018-12-01T18:06:09.362Z,2.43
2018-12-01T18:08:36.985Z,2.90
2018-12-01T18:11:05.244Z,2.73
2018-12-01T18:13:33.124Z,2.10
2018-12-01T18:16:00.866Z,1.87
2018-12-01T18:18:28.468Z,2.13
2018-12-01T18:20:56.258Z,2.30
2018-12-01T18:23:23.800Z,2.50
2018-12-01T18:25:53.546Z,2.03
2018-12-01T18:28:25.260Z,3.43
2018-12-01T18:30:53.370Z,1.83
2018-12-01T18:33:38.691Z,1.93
2018-12-01T18:36:08.065Z,2.00
2018-12-01T18:38:36.060Z,2.30
2018-12-01T18:41:04.406Z,2.00
2018-12-01T18:43:32.045Z,1.90
2018-12-01T18:46:01.238Z,1.67
2018-12-01T18:48:29.038Z,1.83
2018-12-01T18:50:56.854Z,2.60
2018-12-01T18:53:24.595Z,2.77
2018-12-01T18:55:54.611Z,1.90
2018-12-01T18:58:22.497Z,2.30
2018-12-01T19:00:55.323Z,7.43
2018-12-01T19:03:25.533Z,25.33
2018-12-01T19:05:53.182Z,15.47
2018-12-01T19:08:20.859Z,7.40
2018-12-01T19:10:48.558Z,5.10
2018-12-01T19:13:16.424Z,3.47
2018-12-01T19:15:44.247Z,2.33
2018-12-01T19:18:12.080Z,2.20
2018-12-01T19:20:40.321Z,2.13
2018-12-01T19:23:09.822Z,2.07
2018-12-01T19:25:39.158Z,1.90
2018-12-01T19:28:07.542Z,1.67
2018-12-01T19:30:35.263Z,2.27
2018-12-01T19:33:08.714Z,1.80
2018-12-01T19:35:36.755Z,1.80
2018-12-01T19:38:07.328Z,2.40
2018-12-01T19:40:35.105Z,1.47
2018-12-01T19:43:02.852Z,1.73
2018-12-01T19:45:30.472Z,2.23
2018-12-01T19:47:58.405Z,1.67
2018-12-01T19:50:42.388Z,1.53
2018-12-01T19:53:14.669Z,1.93
2018-12-01T19:55:43.101Z,1.67
2018-12-01T19:58:19.156Z,1.67
2018-12-01T20:00:50.515Z,1.90
2018-12-01T20:03:19.969Z,1.93
2018-12-01T20:05:47.892Z,2.07
2018-12-01T20:08:17.035Z,2.10
2018-12-01T20:10:50.405Z,1.90
2018-12-01T20:13:31.164Z,2.40
2018-12-01T20:16:03.793Z,4.93
2018-12-01T20:18:31.610Z,39.93
2018-12-01T20:20:59.180Z,22.53
2018-12-01T20:23:26.984Z,14.60
2018-12-01T20:25:54.685Z,8.10
2018-12-01T20:28:22.562Z,6.43
2018-12-01T20:30:52.531Z,5.07
2018-12-01T20:33:19.667Z,2.43
2018-12-01T20:35:54.030Z,2.27
2018-12-01T20:38:30.284Z,2.47
2018-12-01T20:40:57.856Z,2.30
2018-12-01T20:43:25.809Z,2.13
2018-12-01T20:45:53.590Z,2.33
2018-12-01T20:48:21.337Z,2.00
2018-12-01T20:50:49.415Z,1.97
2018-12-01T20:53:17.118Z,2.27
2018-12-01T20:55:47.799Z,2.27
2018-12-01T20:58:15.447Z,1.90
2018-12-01T21:00:43.283Z,1.70
2018-12-01T21:03:11.745Z,1.63
2018-12-01T21:05:39.365Z,1.63
2018-12-01T21:08:07.853Z,1.93
2018-12-01T21:10:37.760Z,1.60
2018-12-01T21:13:05.942Z,1.70
2018-12-01T21:15:33.783Z,1.50
2018-12-01T21:18:01.825Z,1.33
2018-12-01T21:20:29.612Z,1.63
2018-12-01T21:22:57.424Z,1.10
2018-12-01T21:25:27.288Z,1.20
2018-12-01T21:27:56.835Z,1.20
2018-12-01T21:30:25.462Z,1.43
2018-12-01T21:33:00.703Z,1.30
2018-12-01T21:35:28.354Z,1.23
2018-12-01T21:37:56.065Z,1.37
2018-12-01T21:40:23.785Z,1.50
2018-12-01T21:42:51.420Z,1.13
2018-12-01T21:45:19.242Z,1.33
2018-12-01T21:47:47.084Z,1.40
2018-12-01T21:50:22.162Z,1.20
2018-12-01T21:52:53.304Z,1.50
2018-12-01T21:55:22.111Z,1.30
2018-12-01T21:57:50.601Z,1.40
2018-12-01T22:00:20.553Z,1.30
2018-12-01T22:02:55.367Z,1.10
2018-12-01T22:05:25.564Z,1.30
2018-12-01T22:07:53.311Z,1.83
2018-12-01T22:10:21.063Z,1.10
2018-12-01T22:12:49.044Z,1.60
2018-12-01T22:15:17.923Z,1.17
2018-12-01T22:17:45.756Z,1.10
2018-12-01T22:20:17.684Z,1.20
2018-12-01T22:22:45.602Z,1.30
2018-12-01T22:25:13.586Z,1.23
2018-12-01T22:27:41.335Z,1.40
2018-12-01T22:30:17.964Z,1.63
2018-12-01T22:32:48.327Z,0.90
2018-12-01T22:35:19.136Z,0.90
2018-12-01T22:37:46.962Z,0.93
2018-12-01T22:40:16.004Z,0.80
2018-12-01T22:42:43.868Z,0.87
2018-12-01T22:45:11.575Z,0.93
2018-12-01T22:47:39.337Z,0.67
2018-12-01T22:50:15.185Z,1.10
2018-12-01T22:52:43.445Z,1.13
2018-12-01T22:55:13.220Z,0.87
2018-12-01T22:57:42.235Z,0.90
2018-12-01T23:01:22.351Z,0.80
2018-12-01T23:03:50.149Z,0.80
2018-12-01T23:06:17.966Z,1.13
2018-12-01T23:08:45.695Z,1.00
2018-12-01T23:11:17.656Z,0.83
2018-12-01T23:13:46.458Z,0.80
2018-12-01T23:16:14.165Z,1.20
2018-12-01T23:18:41.961Z,0.70
2018-12-01T23:21:09.867Z,0.90
2018-12-01T23:23:37.530Z,0.83
2018-12-01T23:26:05.279Z,0.90
2018-12-01T23:28:33.251Z,0.80
2018-12-01T23:31:01.051Z,0.80
2018-12-01T23:33:29.033Z,0.90
2018-12-01T23:35:56.812Z,0.70
2018-12-01T23:38:24.441Z,1.20
2018-12-01T23:40:52.666Z,0.70
2018-12-01T23:43:20.473Z,0.80
2018-12-01T23:45:48.306Z,0.77
2018-12-01T23:48:16.008Z,0.80
2018-12-01T23:50:45.470Z,0.77
2018-12-01T23:53:14.671Z,0.70
2018-12-01T23:55:42.324Z,0.70
2018-12-01T23:58:10.030Z,0.70
